createdAt,value
2019-01-27T00:01:23.354Z,69.80
2019-01-27T00:03:55.185Z,63.20
2019-01-27T00:06:25.514Z,70.70
2019-01-27T00:08:57.714Z,67.20
2019-01-27T00:11:28.378Z,75.63
2019-01-27T00:13:59.283Z,62.70
2019-01-27T00:16:29.672Z,64.07
2019-01-27T00:19:00.655Z,63.90
2019-01-27T00:21:33.027Z,65.73
2019-01-27T00:24:04.018Z,69.20
2019-01-27T00:26:35.032Z,64.23
2019-01-27T00:29:09.489Z,61.50
2019-01-27T00:31:40.313Z,71.87
2019-01-27T00:34:11.452Z,70.73
2019-01-27T00:36:42.424Z,70.23
2019-01-27T00:39:13.679Z,56.30
2019-01-27T00:41:44.874Z,60.93
2019-01-27T00:44:16.868Z,55.93
2019-01-27T00:46:49.409Z,52.57
2019-01-27T00:49:20.720Z,57.00
2019-01-27T00:51:52.752Z,62.90
2019-01-27T00:54:24.708Z,57.07
2019-01-27T00:56:57.838Z,56.50
2019-01-27T00:59:29.855Z,61.27
2019-01-27T01:02:00.658Z,66.17
2019-01-27T01:04:31.750Z,60.37
2019-01-27T01:07:02.406Z,63.33
2019-01-27T01:09:33.725Z,64.93
2019-01-27T01:12:04.766Z,57.97
2019-01-27T01:14:35.660Z,60.53
2019-01-27T01:17:06.868Z,66.60
2019-01-27T01:19:38.058Z,62.00
2019-01-27T01:22:09.986Z,56.33
2019-01-27T01:24:41.046Z,57.80
2019-01-27T01:27:13.371Z,59.03
2019-01-27T01:29:43.792Z,61.13
2019-01-27T01:32:15.341Z,52.73
2019-01-27T01:34:46.138Z,59.27
2019-01-27T01:37:17.500Z,56.47
2019-01-27T01:39:48.416Z,60.43
2019-01-27T01:42:19.101Z,58.13
2019-01-27T01:44:51.414Z,54.27
2019-01-27T01:47:22.900Z,59.00
2019-01-27T01:49:53.332Z,60.50
2019-01-27T01:52:24.232Z,57.23
2019-01-27T01:54:55.675Z,50.57
2019-01-27T01:57:27.018Z,53.90
2019-01-27T01:59:57.525Z,53.40
2019-01-27T02:02:28.066Z,51.53
2019-01-27T02:04:58.756Z,56.87
2019-01-27T02:07:29.705Z,49.80
2019-01-27T02:10:00.411Z,55.80
2019-01-27T02:12:32.111Z,50.93
2019-01-27T02:15:04.613Z,54.97
2019-01-27T02:17:35.035Z,53.03
2019-01-27T02:20:06.955Z,45.07
2019-01-27T02:22:37.675Z,48.03
2019-01-27T02:25:09.947Z,51.33
2019-01-27T02:27:41.094Z,45.53
2019-01-27T02:30:14.032Z,47.67
2019-01-27T02:32:45.425Z,47.83
2019-01-27T02:35:17.205Z,51.00
2019-01-27T02:37:49.106Z,52.80
2019-01-27T02:40:20.225Z,50.33
2019-01-27T02:42:51.062Z,56.20
2019-01-27T02:45:23.457Z,50.60
2019-01-27T02:47:55.287Z,47.77
2019-01-27T02:50:25.767Z,49.87
2019-01-27T02:52:56.323Z,52.27
2019-01-27T02:55:28.338Z,50.27
2019-01-27T02:58:00.108Z,51.57
2019-01-27T03:00:30.663Z,52.13
2019-01-27T03:03:01.143Z,54.03
2019-01-27T03:05:39.764Z,49.03
2019-01-27T03:08:12.849Z,46.13
2019-01-27T03:10:44.609Z,48.30
2019-01-27T03:13:16.034Z,52.80
2019-01-27T03:15:46.680Z,59.70
2019-01-27T03:18:17.846Z,57.30
2019-01-27T03:20:48.453Z,46.63
2019-01-27T03:23:19.886Z,52.47
2019-01-27T03:25:51.295Z,56.77
2019-01-27T03:28:22.230Z,52.70
2019-01-27T03:30:53.026Z,53.30
2019-01-27T03:33:23.625Z,52.97
2019-01-27T03:35:54.409Z,50.13
2019-01-27T03:38:25.232Z,51.40
2019-01-27T03:40:57.449Z,56.93
2019-01-27T03:43:28.358Z,57.70
2019-01-27T03:46:00.216Z,50.80
2019-01-27T03:48:31.356Z,50.93
2019-01-27T03:51:02.124Z,47.47
2019-01-27T03:53:34.056Z,51.33
2019-01-27T03:56:05.296Z,49.73
2019-01-27T03:58:36.482Z,53.47
2019-01-27T04:01:07.524Z,52.23
2019-01-27T04:03:38.194Z,50.93
2019-01-27T04:06:11.046Z,51.03
2019-01-27T04:08:42.126Z,53.70
2019-01-27T04:11:13.003Z,48.10
2019-01-27T04:13:43.525Z,48.80
2019-01-27T04:16:15.192Z,53.37
2019-01-27T04:18:47.967Z,52.17
2019-01-27T04:21:19.862Z,51.67
2019-01-27T04:23:50.437Z,46.47
2019-01-27T04:26:21.203Z,52.07
2019-01-27T04:28:52.530Z,48.70
2019-01-27T04:31:24.120Z,46.10
2019-01-27T04:33:56.580Z,50.40
2019-01-27T04:36:28.077Z,43.80
2019-01-27T04:39:00.457Z,43.40
2019-01-27T04:41:31.424Z,44.57
2019-01-27T04:44:05.971Z,46.07
2019-01-27T04:46:39.500Z,44.23
2019-01-27T04:49:10.803Z,42.50
2019-01-27T04:51:45.431Z,44.63
2019-01-27T04:54:17.886Z,41.37
2019-01-27T04:56:48.575Z,41.67
2019-01-27T04:59:19.398Z,43.10
2019-01-27T05:01:50.231Z,38.70
2019-01-27T05:04:23.985Z,36.80
2019-01-27T05:06:55.808Z,33.63
2019-01-27T05:09:27.915Z,37.63
2019-01-27T05:11:58.501Z,34.27
2019-01-27T05:14:29.193Z,34.80
2019-01-27T05:17:01.788Z,36.43
2019-01-27T05:19:32.759Z,34.77
2019-01-27T05:22:03.062Z,34.23
2019-01-27T05:24:33.843Z,30.23
2019-01-27T05:27:06.450Z,36.43
2019-01-27T05:29:42.580Z,32.50
2019-01-27T05:32:15.091Z,31.97
2019-01-27T05:34:47.357Z,29.20
2019-01-27T05:37:23.670Z,29.03
2019-01-27T05:39:55.392Z,28.00
2019-01-27T05:42:26.249Z,31.37
2019-01-27T05:44:58.811Z,31.67
2019-01-27T05:47:29.397Z,32.07
2019-01-27T05:50:00.337Z,33.47
2019-01-27T05:52:31.770Z,33.67
2019-01-27T05:55:02.369Z,30.70
2019-01-27T05:57:33.126Z,31.33
2019-01-27T06:00:05.012Z,28.50
2019-01-27T06:02:35.979Z,33.30
2019-01-27T06:05:08.437Z,32.33
2019-01-27T06:07:42.082Z,36.57
2019-01-27T06:10:14.259Z,31.10
2019-01-27T06:12:45.069Z,28.17
2019-01-27T06:15:17.231Z,29.07
2019-01-27T06:17:48.770Z,27.70
2019-01-27T06:20:21.350Z,27.07
2019-01-27T06:22:53.750Z,23.53
2019-01-27T06:25:26.263Z,22.97
2019-01-27T06:27:57.426Z,24.40
2019-01-27T06:30:28.758Z,24.83
2019-01-27T06:33:18.485Z,21.67
2019-01-27T06:35:49.064Z,19.97
2019-01-27T06:38:20.879Z,18.03
2019-01-27T06:40:52.677Z,21.77
2019-01-27T06:43:24.526Z,19.17
2019-01-27T06:45:54.845Z,23.10
2019-01-27T06:48:27.388Z,20.10
2019-01-27T06:50:58.019Z,19.17
2019-01-27T06:53:30.743Z,18.73
2019-01-27T06:56:01.920Z,18.43
2019-01-27T06:58:36.277Z,19.27
2019-01-27T07:01:12.738Z,19.77
2019-01-27T07:03:46.589Z,18.70
2019-01-27T07:06:20.422Z,19.13
2019-01-27T07:08:53.181Z,19.30
2019-01-27T07:11:32.891Z,25.73
2019-01-27T07:14:12.963Z,21.83
2019-01-27T07:16:55.345Z,22.03
2019-01-27T07:19:41.264Z,23.10
2019-01-27T07:22:30.135Z,18.17
2019-01-27T07:25:02.283Z,18.90
2019-01-27T07:27:34.493Z,23.03
2019-01-27T07:30:15.814Z,16.80
2019-01-27T07:32:57.002Z,17.87
2019-01-27T07:35:30.299Z,18.00
2019-01-27T07:38:03.980Z,21.97
2019-01-27T07:40:42.823Z,21.17
2019-01-27T07:43:31.067Z,19.50
2019-01-27T07:46:10.370Z,24.13
2019-01-27T07:48:50.607Z,25.07
2019-01-27T07:51:27.559Z,21.03
2019-01-27T07:54:17.026Z,20.90
2019-01-27T07:56:51.457Z,18.80
2019-01-27T07:59:27.152Z,27.57
2019-01-27T08:02:03.083Z,22.17
2019-01-27T08:04:35.813Z,28.27
2019-01-27T08:07:26.072Z,23.73
2019-01-27T08:09:59.685Z,29.50
2019-01-27T08:12:41.351Z,23.40
2019-01-27T08:15:29.969Z,23.20
2019-01-27T08:18:03.435Z,19.10
2019-01-27T08:20:39.687Z,18.70
2019-01-27T08:23:13.765Z,25.27
2019-01-27T08:25:54.303Z,24.30
2019-01-27T08:28:42.159Z,23.10
2019-01-27T08:31:29.046Z,23.20
2019-01-27T08:34:03.790Z,23.43
2019-01-27T08:36:44.781Z,23.60
2019-01-27T08:39:17.190Z,20.93
2019-01-27T08:42:03.635Z,20.77
2019-01-27T08:44:51.074Z,18.93
2019-01-27T08:47:21.971Z,19.77
2019-01-27T08:49:55.104Z,22.00
2019-01-27T08:52:26.699Z,18.17
2019-01-27T08:54:58.626Z,19.83
2019-01-27T08:57:29.614Z,21.43
2019-01-27T09:00:01.049Z,19.40
2019-01-27T09:02:36.179Z,18.80
2019-01-27T09:05:10.743Z,19.90
2019-01-27T09:07:59.443Z,18.60
2019-01-27T09:10:38.106Z,20.87
2019-01-27T09:13:16.539Z,20.80
2019-01-27T09:16:04.589Z,20.57
2019-01-27T09:18:36.446Z,19.73
2019-01-27T09:21:11.166Z,20.47
2019-01-27T09:23:46.072Z,21.27
2019-01-27T09:26:18.817Z,19.67
2019-01-27T09:28:50.524Z,21.77
2019-01-27T09:31:22.384Z,19.77
2019-01-27T09:34:13.289Z,18.53
2019-01-27T09:37:00.328Z,19.17
2019-01-27T09:39:32.234Z,20.13
2019-01-27T09:42:13.132Z,21.57
2019-01-27T09:44:49.764Z,20.00
2019-01-27T09:47:27.569Z,17.13
2019-01-27T09:50:05.380Z,16.53
2019-01-27T09:52:52.360Z,17.27
2019-01-27T09:55:24.085Z,18.13
2019-01-27T09:58:04.836Z,20.10
2019-01-27T10:00:45.852Z,18.27
2019-01-27T10:03:17.508Z,16.50
2019-01-27T10:05:49.363Z,17.63
2019-01-27T10:08:23.960Z,16.60
2019-01-27T10:11:04.562Z,16.77
2019-01-27T10:13:36.318Z,17.50
2019-01-27T10:16:14.023Z,17.93
2019-01-27T10:18:49.375Z,18.90
2019-01-27T10:21:29.894Z,17.30
2019-01-27T10:24:03.552Z,16.20
2019-01-27T10:26:39.606Z,20.50
2019-01-27T10:29:11.706Z,20.07
2019-01-27T10:31:52.805Z,18.23
2019-01-27T10:34:31.066Z,16.77
2019-01-27T10:37:12.007Z,17.27
2019-01-27T10:39:39.774Z,17.17
2019-01-27T10:42:13.497Z,18.40
2019-01-27T10:44:53.633Z,17.20
2019-01-27T10:47:35.420Z,20.80
2019-01-27T10:50:26.341Z,17.77
2019-01-27T10:53:04.517Z,16.13
2019-01-27T10:55:41.542Z,17.20
2019-01-27T10:58:19.570Z,19.23
2019-01-27T11:00:51.231Z,15.77
2019-01-27T11:03:34.772Z,21.40
2019-01-27T11:06:09.824Z,15.37
2019-01-27T11:08:56.939Z,17.07
2019-01-27T11:11:40.476Z,17.23
2019-01-27T11:14:14.590Z,20.07
2019-01-27T11:16:46.436Z,18.67
2019-01-27T11:19:18.376Z,16.53
2019-01-27T11:21:53.254Z,16.07
2019-01-27T11:24:27.665Z,14.07
2019-01-27T11:26:59.901Z,16.87
2019-01-27T11:29:46.276Z,15.17
2019-01-27T11:32:18.120Z,14.67
2019-01-27T11:35:07.623Z,15.03
2019-01-27T11:37:55.666Z,15.27
2019-01-27T11:40:39.518Z,13.83
2019-01-27T11:43:14.555Z,14.80
2019-01-27T11:46:04.525Z,15.83
2019-01-27T11:48:36.510Z,18.63
2019-01-27T11:51:08.566Z,15.73
2019-01-27T11:53:38.901Z,15.63
2019-01-27T11:56:09.170Z,13.90
2019-01-27T11:58:39.279Z,14.03
2019-01-27T12:01:09.365Z,16.03
2019-01-27T12:03:39.500Z,15.13
2019-01-27T12:06:09.661Z,15.60
2019-01-27T12:08:40.063Z,15.07
2019-01-27T12:11:10.101Z,14.77
2019-01-27T12:13:40.208Z,14.27
2019-01-27T12:16:10.581Z,15.37
2019-01-27T12:18:41.095Z,14.57
2019-01-27T12:21:11.123Z,12.67
2019-01-27T12:23:41.497Z,16.90
2019-01-27T12:26:11.630Z,17.60
2019-01-27T12:28:41.906Z,14.67
2019-01-27T12:31:12.220Z,15.87
2019-01-27T12:33:42.264Z,14.60
2019-01-27T12:36:12.513Z,15.93
2019-01-27T12:38:42.728Z,14.53
2019-01-27T12:41:12.926Z,14.87
2019-01-27T12:43:43.105Z,14.17
2019-01-27T12:46:13.483Z,14.47
2019-01-27T12:48:43.909Z,12.30
2019-01-27T12:51:14.085Z,14.20
2019-01-27T12:53:45.260Z,17.43
2019-01-27T12:56:15.530Z,18.93
2019-01-27T12:58:46.079Z,23.77
2019-01-27T13:01:16.807Z,17.10
2019-01-27T13:03:47.124Z,17.33
2019-01-27T13:06:17.212Z,15.07
2019-01-27T13:08:47.501Z,17.73
2019-01-27T13:11:17.821Z,17.93
2019-01-27T13:13:48.304Z,21.60
2019-01-27T13:16:18.477Z,20.13
2019-01-27T13:18:48.699Z,13.87
2019-01-27T13:21:18.848Z,11.63
2019-01-27T13:23:49.137Z,22.33
2019-01-27T13:26:19.240Z,16.17
2019-01-27T13:28:49.671Z,12.20
2019-01-27T13:31:21.710Z,15.93
2019-01-27T13:33:52.208Z,16.40
2019-01-27T13:36:22.530Z,18.00
2019-01-27T13:38:53.028Z,16.10
2019-01-27T13:41:23.215Z,16.03
2019-01-27T13:43:53.838Z,17.07
2019-01-27T13:46:23.960Z,15.20
2019-01-27T13:48:54.111Z,13.07
2019-01-27T13:51:24.145Z,12.97
2019-01-27T13:53:54.474Z,13.07
2019-01-27T13:56:24.635Z,11.43
2019-01-27T13:58:54.747Z,11.23
2019-01-27T14:01:25.006Z,19.83
2019-01-27T14:03:55.240Z,19.43
2019-01-27T14:06:25.246Z,28.20
2019-01-27T14:08:55.543Z,23.50
2019-01-27T14:11:25.739Z,25.47
2019-01-27T14:13:56.087Z,19.63
2019-01-27T14:16:26.456Z,25.13
2019-01-27T14:18:57.340Z,18.63
2019-01-27T14:21:27.593Z,12.93
2019-01-27T14:23:57.824Z,15.90
2019-01-27T14:26:28.405Z,11.60
2019-01-27T14:28:59.640Z,13.43
2019-01-27T14:31:30.102Z,15.00
2019-01-27T14:34:00.910Z,14.50
2019-01-27T14:36:31.521Z,20.83
2019-01-27T14:39:02.031Z,12.37
2019-01-27T14:41:34.019Z,12.77
2019-01-27T14:44:04.482Z,22.60
2019-01-27T14:46:35.234Z,12.03
2019-01-27T14:49:05.702Z,11.73
2019-01-27T14:51:36.079Z,11.13
2019-01-27T14:54:06.392Z,13.43
2019-01-27T14:56:37.023Z,16.57
2019-01-27T14:59:08.955Z,14.87
2019-01-27T15:01:39.192Z,14.03
2019-01-27T15:04:09.505Z,13.03
2019-01-27T15:06:41.118Z,12.73
2019-01-27T15:09:11.505Z,12.93
2019-01-27T15:11:41.914Z,16.67
2019-01-27T15:14:12.234Z,12.30
2019-01-27T15:16:43.285Z,13.50
2019-01-27T15:19:13.721Z,12.80
2019-01-27T15:21:43.838Z,13.57
2019-01-27T15:24:14.259Z,13.97
2019-01-27T15:26:46.018Z,13.53
2019-01-27T15:29:16.363Z,14.17
2019-01-27T15:31:46.744Z,16.87
2019-01-27T15:34:17.265Z,16.70
2019-01-27T15:36:47.542Z,17.47
2019-01-27T15:39:17.884Z,16.43
2019-01-27T15:41:48.196Z,15.77
2019-01-27T15:44:18.415Z,14.60
2019-01-27T15:46:48.969Z,20.57
2019-01-27T15:49:20.904Z,18.33
2019-01-27T15:51:51.135Z,18.97
2019-01-27T15:54:21.880Z,17.07
2019-01-27T15:56:53.619Z,17.83
2019-01-27T15:59:24.715Z,21.50
2019-01-27T16:01:54.985Z,17.97
2019-01-27T16:04:25.271Z,21.93
2019-01-27T16:06:55.641Z,17.20
2019-01-27T16:09:26.023Z,20.00
2019-01-27T16:11:56.144Z,17.60
2019-01-27T16:14:26.425Z,20.40
2019-01-27T16:16:56.606Z,20.80
2019-01-27T16:19:26.868Z,22.73
2019-01-27T16:21:56.983Z,26.17
2019-01-27T16:24:27.483Z,24.37
2019-01-27T16:26:57.667Z,24.80
2019-01-27T16:29:42.277Z,23.43
2019-01-27T16:32:14.199Z,25.77
2019-01-27T16:34:44.516Z,19.27
2019-01-27T16:37:14.918Z,25.37
2019-01-27T16:39:45.190Z,25.37
2019-01-27T16:42:15.709Z,24.17
2019-01-27T16:44:45.921Z,34.80
2019-01-27T16:47:18.989Z,38.90
2019-01-27T16:49:47.956Z,37.33
2019-01-27T16:52:17.966Z,63.40
2019-01-27T16:54:48.166Z,69.87
2019-01-27T16:57:18.467Z,37.07
2019-01-27T16:59:48.774Z,49.93
2019-01-27T17:02:19.057Z,44.90
2019-01-27T17:04:49.662Z,57.70
2019-01-27T17:07:19.946Z,58.27
2019-01-27T17:09:50.091Z,47.00
2019-01-27T17:12:21.045Z,39.03
2019-01-27T17:14:51.241Z,32.83
2019-01-27T17:17:21.474Z,31.57
2019-01-27T17:19:51.605Z,38.97
2019-01-27T17:22:21.721Z,24.90
2019-01-27T17:24:52.060Z,39.30
2019-01-27T17:27:22.335Z,38.20
2019-01-27T17:29:52.614Z,28.23
2019-01-27T17:32:22.774Z,37.37
2019-01-27T17:34:54.554Z,36.83
2019-01-27T17:37:26.378Z,36.67
2019-01-27T17:39:57.169Z,33.93
2019-01-27T17:42:27.576Z,25.37
2019-01-27T17:44:58.192Z,27.70
2019-01-27T17:47:29.947Z,26.10
2019-01-27T17:50:01.110Z,25.00
2019-01-27T17:52:31.813Z,30.07
2019-01-27T17:55:02.133Z,31.93
2019-01-27T17:57:33.928Z,51.60
2019-01-27T18:00:08.871Z,29.53
2019-01-27T18:02:43.775Z,33.27
2019-01-27T18:05:18.568Z,26.57
2019-01-27T18:07:50.557Z,30.03
2019-01-27T18:10:22.352Z,32.07
2019-01-27T18:12:55.826Z,29.43
2019-01-27T18:15:26.663Z,31.77
2019-01-27T18:17:57.140Z,28.33
2019-01-27T18:20:29.083Z,29.80
2019-01-27T18:22:59.459Z,27.83
2019-01-27T18:25:30.014Z,28.77
2019-01-27T18:28:00.284Z,33.47
2019-01-27T18:30:30.650Z,31.30
2019-01-27T18:33:01.183Z,32.17
2019-01-27T18:35:33.026Z,29.40
2019-01-27T18:38:03.663Z,29.00
2019-01-27T18:40:33.996Z,28.70
2019-01-27T18:43:04.589Z,30.97
2019-01-27T18:45:35.125Z,29.33
2019-01-27T18:48:05.655Z,29.97
2019-01-27T18:50:36.006Z,32.53
2019-01-27T18:53:09.440Z,33.70
2019-01-27T18:55:50.566Z,31.70
2019-01-27T18:58:28.620Z,32.60
2019-01-27T19:01:06.927Z,30.10
2019-01-27T19:03:38.911Z,31.83
2019-01-27T19:06:11.076Z,30.73
2019-01-27T19:08:44.446Z,31.83
2019-01-27T19:11:16.622Z,30.03
2019-01-27T19:13:48.946Z,33.43
2019-01-27T19:16:39.408Z,30.73
2019-01-27T19:19:18.902Z,34.27
2019-01-27T19:21:55.267Z,34.37
2019-01-27T19:24:27.186Z,34.83
2019-01-27T19:27:05.538Z,33.53
2019-01-27T19:29:40.805Z,35.07
2019-01-27T19:32:18.796Z,31.17
2019-01-27T19:34:50.908Z,33.13
2019-01-27T19:37:22.719Z,31.93
2019-01-27T19:39:56.047Z,32.43
2019-01-27T19:42:28.045Z,34.53
2019-01-27T19:45:03.369Z,29.73
2019-01-27T19:47:38.574Z,34.07
2019-01-27T19:50:27.541Z,31.83
2019-01-27T19:53:07.727Z,32.33
2019-01-27T19:55:39.870Z,32.13
2019-01-27T19:58:18.994Z,31.33
2019-01-27T20:00:51.678Z,29.13
2019-01-27T20:03:26.943Z,26.53
2019-01-27T20:06:09.388Z,30.20
2019-01-27T20:08:47.722Z,25.90
2019-01-27T20:11:45.453Z,32.27
2019-01-27T20:14:17.080Z,24.50
2019-01-27T20:17:07.758Z,25.67
2019-01-27T20:19:40.026Z,23.83
2019-01-27T20:22:12.092Z,26.10
2019-01-27T20:25:00.665Z,30.43
2019-01-27T20:27:32.508Z,27.40
2019-01-27T20:30:04.766Z,24.80
2019-01-27T20:32:48.948Z,25.63
2019-01-27T20:35:27.517Z,24.80
2019-01-27T20:38:15.483Z,24.00
2019-01-27T20:41:01.355Z,27.87
2019-01-27T20:43:51.862Z,22.23
2019-01-27T20:46:30.474Z,26.67
2019-01-27T20:49:03.864Z,24.83
2019-01-27T20:51:45.234Z,29.03
2019-01-27T20:54:22.249Z,20.73
2019-01-27T20:57:09.462Z,19.83
2019-01-27T20:59:41.442Z,26.83
2019-01-27T21:02:13.489Z,26.77
2019-01-27T21:04:56.611Z,24.27
2019-01-27T21:07:43.245Z,25.13
2019-01-27T21:10:18.516Z,25.40
2019-01-27T21:12:56.551Z,20.00
2019-01-27T21:15:35.877Z,21.60
2019-01-27T21:18:08.090Z,25.27
2019-01-27T21:20:41.196Z,25.30
2019-01-27T21:23:11.793Z,23.10
2019-01-27T21:25:43.571Z,19.33
2019-01-27T21:28:14.019Z,22.13
2019-01-27T21:30:44.448Z,26.53
2019-01-27T21:33:14.828Z,24.60
2019-01-27T21:35:45.254Z,27.77
2019-01-27T21:38:15.617Z,24.43
2019-01-27T21:40:47.556Z,23.60
2019-01-27T21:43:20.874Z,26.53
2019-01-27T21:45:51.347Z,21.73
2019-01-27T21:48:24.668Z,28.53
2019-01-27T21:50:55.054Z,27.77
2019-01-27T21:53:26.872Z,30.13
2019-01-27T21:55:57.345Z,27.00
2019-01-27T21:58:29.241Z,24.47
2019-01-27T22:00:59.665Z,35.33
2019-01-27T22:03:30.017Z,23.90
2019-01-27T22:06:00.730Z,29.93
2019-01-27T22:08:32.727Z,29.43
2019-01-27T22:11:02.921Z,26.07
2019-01-27T22:13:33.212Z,25.13
2019-01-27T22:16:03.260Z,29.87
2019-01-27T22:18:33.457Z,27.77
2019-01-27T22:21:04.376Z,29.43
2019-01-27T22:23:34.806Z,26.43
2019-01-27T22:26:05.308Z,22.77
2019-01-27T22:28:35.652Z,25.63
2019-01-27T22:31:06.599Z,29.37
2019-01-27T22:33:37.325Z,22.83
2019-01-27T22:36:07.383Z,23.20
2019-01-27T22:38:37.558Z,22.73
2019-01-27T22:41:07.998Z,28.73
2019-01-27T22:43:38.390Z,23.10
2019-01-27T22:46:08.808Z,26.73
2019-01-27T22:48:39.273Z,20.97
2019-01-27T22:51:09.419Z,23.57
2019-01-27T22:53:39.891Z,23.87
2019-01-27T22:56:10.046Z,21.97
2019-01-27T22:58:40.644Z,31.63
2019-01-27T23:01:13.111Z,28.80
2019-01-27T23:03:43.358Z,27.83
2019-01-27T23:06:13.568Z,22.50
2019-01-27T23:08:43.702Z,24.50
2019-01-27T23:11:13.944Z,22.20
2019-01-27T23:13:44.311Z,21.50
2019-01-27T23:16:14.469Z,22.33
2019-01-27T23:18:44.664Z,21.60
2019-01-27T23:21:14.767Z,18.77
2019-01-27T23:23:44.763Z,16.20
2019-01-27T23:26:15.106Z,17.50
2019-01-27T23:28:46.683Z,25.50
2019-01-27T23:31:17.145Z,20.97
2019-01-27T23:33:47.669Z,21.63
2019-01-27T23:36:18.115Z,27.53
2019-01-27T23:38:49.194Z,22.47
2019-01-27T23:41:19.442Z,21.33
2019-01-27T23:43:50.005Z,20.33
2019-01-27T23:46:21.011Z,22.37
2019-01-27T23:48:53.134Z,19.50
2019-01-27T23:51:23.182Z,23.20
2019-01-27T23:53:53.717Z,19.33
2019-01-27T23:56:24.149Z,22.13
2019-01-27T23:58:54.542Z,20.53
